Latest Weather Observations for Tunnack

IDT60801

Issued at 3:01 pm EDT Saturday 31 January 2015 (issued every 30 minutes, with the page automatically refreshed every 10 minutes)

About weather observations | Map of weather stations | Latest weather observations for TAS | Other Formats
Station Details ID: 094195 Name: TUNNACK FIRE STATION Lat: -42.45 Lon: 147.46 Height: 461.5 m
Data from the previous 72 hours. | See also: Recent months at Tunnack
Date/Time
EDT
Temp
°C
App
Temp
°C
Dew
Point
Rel
Hum
%
Delta-T
°C
Wind Press
QNH
hPa
Press
MSL
hPa
Rain
since 9 am
mm
Dir
 
Spd
km/h
Gust
km/h
Spd
kts
Gust
kts
31/03:00pm 11.0 5.3 11.0 100 0.0 SSW 32 44 17 24 1010.7 1009.7 4.8
31/02:36pm 11.0 5.3 11.0 100 0.0 SSW 32 50 17 27 1010.8 1009.8 4.6
31/02:30pm 11.0 5.3 11.0 100 0.0 SSW 32 46 17 25 1010.7 1009.7 4.6
31/02:26pm 11.1 6.1 11.1 100 0.0 SSW 28 46 15 25 1010.8 1009.8 4.6
31/02:00pm 11.2 5.9 11.2 100 0.0 SSW 30 46 16 25 1010.8 1009.8 4.6
31/01:30pm 11.0 5.3 11.0 100 0.0 SSW 32 50 17 27 1010.9 1009.9 4.0
31/01:27pm 10.9 5.1 10.9 100 0.0 SSW 32 50 17 27 1010.9 1009.9 4.0
31/01:00pm 11.1 6.5 11.1 100 0.0 SSW 26 41 14 22 1010.9 1009.9 3.6
31/12:30pm 11.4 6.9 11.4 100 0.0 SSW 26 35 14 19 1010.9 1009.9 3.2
31/12:00pm 11.2 5.9 11.2 100 0.0 SSW 30 43 16 23 1010.9 1009.9 3.0
31/11:30am 11.1 6.1 11.1 100 0.0 SSW 28 43 15 23 1011.1 1010.2 2.4
31/11:00am 11.0 6.0 11.0 100 0.0 SSW 28 43 15 23 1011.3 1010.4 1.8
31/10:49am 10.9 5.9 10.9 100 0.0 SSW 28 46 15 25 1011.2 1010.3 1.8
31/10:30am 11.0 6.4 11.0 100 0.0 SSW 26 43 14 23 1011.3 1010.4 1.6
31/10:00am 11.0 6.8 11.0 100 0.0 SSW 24 43 13 23 1011.3 1010.4 1.0
31/09:49am 10.9 5.9 10.9 100 0.0 SSW 28 50 15 27 1011.3 1010.4 0.8
31/09:30am 10.9 5.9 10.9 100 0.0 SSW 28 43 15 23 1011.2 1010.3 0.4
31/09:00am 10.9 6.3 10.9 100 0.0 SSW 26 37 14 20 1011.0 1010.1 7.8
31/08:30am 10.7 5.2 10.7 100 0.0 SSW 30 43 16 23 1011.0 1010.1 7.4
31/08:20am 10.7 5.6 10.7 100 0.0 SSW 28 46 15 25 1010.9 1009.9 7.4
31/08:00am 10.6 5.1 10.6 100 0.0 SSW 30 44 16 24 1010.8 1009.8 7.2
31/07:30am 10.4 4.9 10.4 100 0.0 SSW 30 43 16 23 1010.8 1009.8 6.8
31/07:00am 10.3 4.4 10.3 100 0.0 SSW 32 46 17 25 1010.8 1009.8 6.2
31/06:30am 10.2 5.0 10.2 100 0.0 SSW 28 43 15 23 1010.8 1009.8 5.8
31/06:15am 10.2 5.0 10.2 100 0.0 SSW 28 46 15 25 1010.8 1009.8 5.6
31/06:00am 10.1 4.9 10.1 100 0.0 SSW 28 43 15 23 1010.7 1009.7 5.4
31/05:30am 10.0 4.7 10.0 100 0.0 SSW 28 41 15 22 1010.7 1009.7 4.8
31/05:00am 9.9 5.0 9.9 100 0.0 SSW 26 39 14 21 1010.6 1009.6 4.4
31/04:30am 9.8 4.1 9.8 100 0.0 SSW 30 43 16 23 1010.8 1009.8 4.0
31/04:00am 9.7 4.0 9.7 100 0.0 SSW 30 41 16 22 1011.1 1010.2 3.8
31/03:43am 9.7 4.4 9.7 100 0.0 SSW 28 46 15 25 1011.2 1010.3 3.6
31/03:30am 9.7 3.6 9.7 100 0.0 SSW 32 44 17 24 1011.3 1010.4 3.4
31/03:00am 9.6 3.5 9.6 100 0.0 SSW 32 48 17 26 1011.5 1010.6 3.2
31/02:51am 9.5 3.7 9.5 100 0.0 SSW 30 48 16 26 1011.6 1010.7 3.0
31/02:30am 9.3 3.8 9.3 100 0.0 SSW 28 39 15 21 1011.8 1010.9 2.8
31/02:00am 9.1 4.7 9.1 100 0.0 SSW 22 35 12 19 1012.1 1011.2 2.6
31/01:30am 8.9 4.1 8.9 100 0.0 SSW 24 33 13 18 1012.3 1011.4 2.4
31/01:00am 8.9 3.3 8.9 100 0.0 SSW 28 39 15 21 1012.6 1011.6 2.2
31/12:30am 8.9 3.7 8.9 100 0.0 SSW 26 39 14 21 1012.8 1011.8 1.8
31/12:00am 8.9 3.7 8.9 100 0.0 SSW 26 37 14 20 1013.1 1012.2 1.6
 
Date/Time
EDT
Temp
°C
App
Temp
°C
Dew
Point
Rel
Hum
%
Delta-T
°C
Wind Press
QNH
hPa
Press
MSL
hPa
Rain
since 9 am
mm
Dir
 
Spd
km/h
Gust
km/h
Spd
kts
Gust
kts
30/11:30pm 8.9 3.3 8.9 100 0.0 SSW 28 43 15 23 1013.4 1012.5 1.4
30/11:00pm 8.9 3.3 8.9 100 0.0 SSW 28 35 15 19 1013.5 1012.6 1.0
30/10:30pm 9.0 3.4 8.9 99 0.1 S 28 41 15 22 1013.8 1012.9 0.8
30/10:28pm 9.0 3.1 8.9 99 0.1 S 30 48 16 26 1013.7 1012.8 0.8
30/10:00pm 9.3 3.4 9.0 98 0.2 S 30 44 16 24 1014.0 1013.1 0.6
30/09:45pm 9.4 3.8 8.8 96 0.3 S 28 50 15 27 1014.1 1013.2 0.6
30/09:30pm 9.4 3.9 9.1 98 0.2 S 28 43 15 23 1014.2 1013.3 0.6
30/09:00pm 9.8 4.2 8.7 93 0.6 S 28 50 15 27 1014.1 1013.2 0.6
30/08:59pm 9.8 4.2 8.7 93 0.6 S 28 50 15 27 1014.1 1013.2 0.6
30/08:30pm 9.7 4.3 9.6 99 0.1 S 28 41 15 22 1014.1 1013.2 0.6
30/08:00pm 9.9 4.4 9.3 96 0.3 SSW 28 41 15 22 1014.2 1013.3 0.6
30/07:30pm 9.8 3.6 9.5 98 0.2 SSW 32 56 17 30 1014.4 1013.5 0.6
30/07:12pm 9.8 4.5 9.7 99 0.1 S 28 50 15 27 1014.5 1013.6 0.4
30/07:00pm 10.1 5.0 9.3 95 0.4 S 26 39 14 21 1014.3 1013.4 0.4
30/06:36pm 9.8 4.4 9.5 98 0.2 SSW 28 50 15 27 1014.4 1013.5 0.2
30/06:30pm 10.1 5.5 9.8 98 0.2 S 24 35 13 19 1014.5 1013.6 0.2
30/06:05pm 9.9 4.5 9.4 97 0.3 S 28 46 15 25 1014.8 1013.9 0.2
30/06:00pm 9.9 4.1 9.4 97 0.3 S 30 46 16 25 1014.9 1014.0 0.2
30/05:30pm 10.2 4.1 9.6 96 0.3 S 32 50 17 27 1015.0 1014.1 0.2
30/05:28pm 10.1 4.3 9.6 97 0.3 S 30 50 16 27 1015.0 1014.1 0.2
30/05:00pm 10.5 5.5 9.7 95 0.4 S 26 43 14 23 1015.3 1014.4 0.2
30/04:31pm 12.1 6.4 8.4 78 1.9 SSW 28 46 15 25 1015.4 1014.5 0.2
30/04:30pm 12.1 6.0 8.4 78 1.9 S 30 46 16 25 1015.4 1014.5 0.2
30/04:08pm 11.8 6.1 8.3 79 1.8 S 28 46 15 25 1015.6 1014.7 0.2
30/04:00pm 11.6 5.2 8.6 82 1.5 SSW 32 46 17 25 1015.7 1014.8 0.2
30/03:31pm 12.9 6.6 7.4 69 2.7 S 30 50 16 27 1015.7 1014.8 0.2
30/03:30pm 13.2 7.1 8.1 71 2.6 S 30 46 16 25 1015.7 1014.8 0.2
30/03:00pm 13.2 6.6 7.6 69 2.8 S 32 50 17 27 1015.9 1015.0 0.2
30/02:47pm 12.3 5.5 6.8 69 2.7 S 32 50 17 27 1016.1 1015.2 0.2
30/02:30pm 12.7 6.1 7.6 71 2.6 S 32 46 17 25 1016.2 1015.3 0.0
30/02:03pm 12.0 6.2 8.1 77 2.0 S 28 46 15 25 1016.4 1015.5 0.0
30/02:00pm 12.2 6.8 8.1 76 2.1 S 26 41 14 22 1016.2 1015.3 0.0
30/01:39pm 12.6 6.6 7.1 69 2.7 S 28 52 15 28 1016.4 1015.5 0.0
30/01:30pm 13.2 7.5 8.5 73 2.4 S 28 43 15 23 1016.4 1015.5 0.0
30/01:16pm 12.4 6.4 7.1 70 2.6 S 28 50 15 27 1016.4 1015.5 0.0
30/01:00pm 11.6 5.9 8.3 80 1.7 S 28 44 15 24 1016.7 1015.9 0.0
30/12:30pm 11.4 5.6 9.3 87 1.1 S 30 50 16 27 1016.8 1016.0 0.0
30/12:22pm 10.5 5.0 9.3 92 0.6 S 28 46 15 25 1017.1 1016.2 0.0
30/12:00pm 10.8 5.3 9.2 90 0.8 S 28 43 15 23 1017.3 1016.4 0.0
30/11:30am 11.8 7.4 8.8 82 1.5 S 22 39 12 21 1017.3 1016.4 0.0
30/11:00am 10.6 6.7 8.7 88 1.0 S 19 30 10 16 1017.8 1016.9 0.0
30/10:30am 10.7 7.8 8.3 85 1.2 S 13 24 7 13 1018.2 1017.3 0.0
30/10:00am 10.3 6.2 8.7 90 0.8 S 20 33 11 18 1018.2 1017.3 0.0
30/09:30am 9.8 6.5 9.7 99 0.1 S 17 28 9 15 1018.3 1017.4 0.0
30/09:00am 9.5 6.2 9.4 99 0.1 S 17 26 9 14 1018.3 1017.4 0.4
30/08:30am 9.3 5.3 9.2 99 0.1 S 20 35 11 19 1018.4 1017.5 0.2
30/08:00am 9.2 6.4 8.7 97 0.2 SSE 13 22 7 12 1018.4 1017.5 0.0
30/07:30am 8.9 5.0 8.8 99 0.1 S 19 32 10 17 1018.4 1017.5 0.0
30/07:00am 8.9 4.5 8.8 99 0.0 S 22 39 12 21 1018.3 1017.4 0.0
30/06:30am 9.1 4.8 7.9 92 0.6 S 20 33 11 18 1018.3 1017.4 0.0
30/06:00am 9.0 4.2 7.5 90 0.7 S 22 37 12 20 1018.3 1017.4 0.0
30/05:30am 9.0 4.6 7.3 89 0.8 SSE 20 35 11 19 1018.4 1017.5 0.0
30/05:00am 9.0 5.1 7.0 87 1.0 S 17 24 9 13 1018.5 1017.7 0.0
30/04:30am 9.0 4.4 6.4 84 1.2 S 20 33 11 18 1018.7 1017.9 0.0
30/04:00am 8.8 3.3 5.7 81 1.4 S 24 35 13 19 1019.0 1018.2 0.0
30/03:30am 8.7 4.4 5.4 80 1.5 S 17 22 9 12 1019.4 1018.5 0.0
30/03:00am 8.7 4.0 5.3 79 1.6 S 19 28 10 15 1019.8 1018.9 0.0
30/02:30am 8.5 4.0 6.0 84 1.2 S 19 28 10 15 1020.2 1019.3 0.0
30/02:00am 8.5 3.7 5.8 83 1.3 S 20 33 11 18 1020.3 1019.4 0.0
30/01:30am 8.5 3.4 6.0 84 1.2 S 22 33 12 18 1020.6 1019.8 0.0
30/01:00am 8.5 4.4 6.1 85 1.1 S 17 28 9 15 1021.2 1020.4 0.0
30/12:30am 8.7 4.8 5.4 80 1.5 SSE 15 26 8 14 1021.6 1020.7 0.0
30/12:00am 8.6 4.0 5.4 80 1.5 SSE 19 30 10 16 1021.8 1020.9 0.0
 
Date/Time
EDT
Temp
°C
App
Temp
°C
Dew
Point
Rel
Hum
%
Delta-T
°C
Wind Press
QNH
hPa
Press
MSL
hPa
Rain
since 9 am
mm
Dir
 
Spd
km/h
Gust
km/h
Spd
kts
Gust
kts
29/11:30pm 8.3 3.7 5.8 84 1.2 SSE 19 28 10 15 1022.1 1021.2 0.0
29/11:00pm 8.9 4.9 4.9 76 1.8 S 15 20 8 11 1022.1 1021.2 0.0
29/10:30pm 8.8 4.5 5.2 78 1.7 S 17 28 9 15 1022.1 1021.2 0.0
29/10:00pm 8.9 4.6 5.1 77 1.7 S 17 24 9 13 1022.5 1021.7 0.0
29/09:30pm 9.0 4.0 4.8 75 1.9 S 20 33 11 18 1022.6 1021.8 0.0
29/09:00pm 9.1 5.0 4.5 73 2.1 SSE 15 30 8 16 1022.5 1021.7 0.0
29/08:30pm 9.3 4.3 4.7 73 2.1 SSE 20 35 11 19 1022.6 1021.8 0.0
29/08:00pm 9.7 4.7 4.7 71 2.3 S 20 35 11 19 1022.6 1021.8 0.0
29/07:30pm 9.9 3.8 4.7 70 2.4 S 26 43 14 23 1022.4 1021.6 0.0
29/07:00pm 9.8 5.0 5.8 76 1.9 S 20 28 11 15 1022.4 1021.6 0.0
29/06:30pm 9.7 5.2 6.8 82 1.4 S 20 32 11 17 1022.5 1021.7 0.0
29/06:00pm 10.5 6.1 6.5 76 1.9 S 19 33 10 18 1022.7 1021.9 0.0
29/05:30pm 10.2 6.8 7.6 84 1.3 S 15 24 8 13 1022.9 1022.1 0.0
29/05:00pm 10.5 5.5 6.5 76 1.9 S 22 35 12 19 1023.1 1022.3 0.0
29/04:30pm 11.2 6.3 6.7 74 2.2 SSE 22 35 12 19 1023.0 1022.2 0.0
29/04:00pm 11.0 5.6 6.2 72 2.3 S 24 37 13 20 1023.3 1022.5 0.0
29/03:30pm 10.6 5.4 7.1 79 1.7 S 24 39 13 21 1023.5 1022.7 0.0
29/03:00pm 10.9 6.5 7.2 78 1.8 S 20 33 11 18 1023.6 1022.8 0.0
29/02:30pm 11.6 7.0 6.7 72 2.4 S 20 33 11 18 1023.9 1023.0 0.0
29/02:00pm 11.5 6.1 6.4 71 2.5 S 24 39 13 21 1023.9 1023.0 0.0
29/01:30pm 10.8 6.1 9.1 89 0.9 S 24 41 13 22 1024.1 1023.2 0.0
29/01:00pm 10.3 5.1 7.2 81 1.5 S 24 35 13 19 1024.4 1023.6 0.0
29/12:30pm 11.1 4.8 5.6 69 2.6 S 28 39 15 21 1024.4 1023.6 0.0
29/12:00pm 11.6 7.0 6.3 70 2.5 S 20 32 11 17 1024.5 1023.7 0.0
29/11:30am 11.0 5.8 5.5 69 2.6 S 22 33 12 18 1024.7 1023.9 0.0
29/11:00am 10.6 6.6 6.6 76 1.9 S 17 28 9 15 1024.8 1024.0 0.0
29/10:30am 10.0 5.0 6.5 79 1.7 S 22 35 12 19 1024.8 1024.0 0.0
29/10:00am 10.3 6.0 6.8 79 1.7 S 19 30 10 16 1024.8 1024.0 0.0
29/09:30am 9.7 6.3 7.5 86 1.1 SSW 15 20 8 11 1024.8 1024.0 0.0
29/09:00am 9.1 6.2 8.0 93 0.5 S 13 17 7 9 1024.9 1024.1 2.8
29/08:30am 8.8 4.7 6.2 84 1.2 S 17 24 9 13 1024.8 1024.0 2.8
29/08:00am 8.7 4.9 5.8 82 1.3 SSE 15 24 8 13 1024.6 1023.8 2.8
29/07:30am 8.3 4.9 5.8 84 1.2 S 13 17 7 9 1024.4 1023.6 2.8
29/07:00am 7.7 4.7 6.0 89 0.8 SSW 11 13 6 7 1024.3 1023.5 2.8
29/06:30am 7.7 4.6 5.5 86 1.0 S 11 19 6 10 1024.2 1023.4 2.8
29/06:00am 7.7 4.7 6.0 89 0.8 S 11 13 6 7 1024.1 1023.2 2.8
29/05:30am 7.1 4.7 7.0 99 0.0 SSW 9 13 5 7 1023.9 1023.0 2.8
29/05:00am 7.9 4.9 7.6 98 0.1 SSW 13 17 7 9 1023.7 1022.9 2.8
29/04:30am 7.9 5.7 7.8 99 0.0 S 9 13 5 7 1023.7 1022.9 2.8
29/04:00am 7.7 5.8 7.6 99 0.0 SSW 7 11 4 6 1023.7 1022.9 2.8
29/03:30am 7.6 5.3 7.5 99 0.0 SSW 9 13 5 7 1023.9 1023.0 2.8
29/03:00am 7.6 5.3 7.5 99 0.0 SSE 9 17 5 9 1024.1 1023.2 2.8
29/02:30am 7.7 5.8 7.6 99 0.0 S 7 11 4 6 1024.3 1023.5 2.8
29/02:00am 7.6 5.6 7.3 98 0.1 SSW 7 11 4 6 1024.3 1023.5 2.8
29/01:30am 7.6 5.6 6.9 95 0.3 S 7 15 4 8 1024.4 1023.6 2.8
29/01:00am 7.6 4.6 6.1 90 0.7 SSW 11 15 6 8 1024.6 1023.8 2.8
29/12:30am 8.5 5.5 5.8 83 1.3 S 11 17 6 9 1024.9 1024.1 2.8
29/12:00am 8.6 4.8 5.7 82 1.3 SSE 15 22 8 12 1024.9 1024.1 2.8
 
Date/Time
EDT
Temp
°C
App
Temp
°C
Dew
Point
Rel
Hum
%
Delta-T
°C
Wind Press
QNH
hPa
Press
MSL
hPa
Rain
since 9 am
mm
Dir
 
Spd
km/h
Gust
km/h
Spd
kts
Gust
kts
28/11:30pm 8.6 4.8 5.7 82 1.4 SSE 15 22 8 12 1024.8 1024.0 2.8
28/11:00pm 8.6 5.7 6.7 88 0.9 SSE 11 19 6 10 1025.2 1024.4 2.8
28/10:30pm 8.6 5.4 6.9 89 0.8 SSE 13 20 7 11 1025.2 1024.4 2.8
28/10:00pm 8.6 4.7 7.1 90 0.7 SSE 17 32 9 17 1025.4 1024.6 2.8
28/09:30pm 8.9 5.6 6.5 85 1.1 SSE 13 20 7 11 1025.2 1024.4 2.8
28/09:00pm 9.0 5.7 6.6 85 1.1 SSE 13 22 7 12 1025.2 1024.4 2.8
28/08:30pm 9.0 5.5 7.3 89 0.8 S 15 20 8 11 1024.8 1024.0 2.8
28/08:00pm 8.9 5.4 7.4 90 0.7 S 15 24 8 13 1024.8 1024.0 2.8
28/07:30pm 8.7 5.0 7.9 95 0.4 S 17 24 9 13 1024.7 1023.9 2.8
28/07:00pm 9.6 4.9 6.1 79 1.6 S 20 30 11 16 1024.5 1023.7 2.4
28/06:30pm 10.0 5.4 5.8 75 2.0 S 19 32 10 17 1024.6 1023.8 2.4
28/06:00pm 10.5 6.3 5.5 71 2.3 S 17 24 9 13 1024.3 1023.5 2.4
28/05:30pm 11.2 7.2 4.9 65 2.9 SSE 15 24 8 13 1024.2 1023.4 2.4
28/05:00pm 11.3 6.4 5.0 65 2.9 S 20 30 11 16 1024.2 1023.4 2.4
28/04:30pm 11.2 6.9 5.3 67 2.8 SSE 17 28 9 15 1024.2 1023.4 2.4
28/04:00pm 11.0 6.3 5.1 67 2.7 SE 19 26 10 14 1024.2 1023.4 2.4
28/03:30pm 11.7 6.4 4.9 63 3.2 SSE 22 32 12 17 1024.0 1023.1 2.4

Other Formats:

Comma delimited format used in spreadsheet applications
http://www.bom.gov.au/fwo/IDT60801/IDT60801.94960.axf

JavaScript Object Notation format (JSON) in row-major order
http://www.bom.gov.au/fwo/IDT60801/IDT60801.94960.json